Time;durP1;ratioP1;P1;durP2;ratioP2;P2;SDS_P1;SDS_P2;PMS_P1;PMS_P2;Temp;Humidity;BMP_temperature;BMP_pressure;BME280_temperature;BME280_humidity;BME280_pressure;Samples;Min_cycle;Max_cycle;Signal;HPM_P1;HPM_P2
2022/10/04 00:01:07;;;;;;;25.73;13.60;;;12.90;99.90;;;;;;5066562;28;20075;-57
2022/10/04 00:04:00;;;;;;;21.40;13.10;;;11.10;99.90;;;;;;5067854;28;20097;-57
2022/10/04 00:06:27;;;;;;;22.35;13.52;;;13.20;99.90;;;;;;5070303;28;20115;-57
2022/10/04 00:08:59;;;;;;;25.80;13.27;;;11.20;99.90;;;;;;5071557;28;20036;-57
2022/10/04 00:11:34;;;;;;;24.13;13.40;;;11.10;99.90;;;;;;5070353;28;20036;-57
2022/10/04 00:14:24;;;;;;;25.65;13.82;;;11.10;99.90;;;;;;5068819;28;20036;-57
2022/10/04 00:16:51;;;;;;;24.42;13.95;;;11.00;99.90;;;;;;5070011;28;20416;-57
2022/10/04 00:19:24;;;;;;;29.63;13.52;;;12.40;99.90;;;;;;5070914;28;20043;-57
2022/10/04 00:21:52;;;;;;;30.48;13.43;;;11.50;99.90;;;;;;5069435;28;20039;-57
2022/10/04 00:24:30;;;;;;;27.08;13.52;;;11.10;99.90;;;;;;5068810;28;20390;-57
2022/10/04 00:27:21;;;;;;;21.08;12.27;;;11.20;99.90;;;;;;5070278;28;20909;-57
2022/10/04 00:30:02;;;;;;;26.33;14.20;;;11.10;99.90;;;;;;5070544;28;20580;-57
2022/10/04 00:32:46;;;;;;;26.13;12.90;;;10.90;99.90;;;;;;5069299;28;20051;-57
2022/10/04 00:35:24;;;;;;;21.10;11.88;;;13.20;99.90;;;;;;5070907;28;20044;-57
2022/10/04 00:38:05;;;;;;;23.05;12.70;;;10.90;99.90;;;;;;5069485;28;20404;-57
2022/10/04 00:40:56;;;;;;;25.23;12.80;;;12.40;99.90;;;;;;5070214;28;20203;-57
2022/10/04 00:43:33;;;;;;;20.00;11.65;;;11.00;99.90;;;;;;5070440;28;20036;-57
2022/10/04 00:46:11;;;;;;;26.35;11.45;;;10.90;99.90;;;;;;5068842;28;20645;-57
2022/10/04 00:48:58;;;;;;;26.23;12.27;;;11.80;99.90;;;;;;5067933;28;20059;-57
2022/10/04 00:51:23;;;;;;;22.45;11.90;;;11.00;99.90;;;;;;5068347;28;20048;-57
2022/10/04 00:54:29;;;;;;;22.20;11.27;;;12.30;99.90;;;;;;5068503;28;20044;-56
2022/10/04 00:56:58;;;;;;;24.05;12.43;;;11.00;99.90;;;;;;5056188;28;20077;-57
2022/10/04 00:59:48;;;;;;;23.45;11.70;;;10.90;99.90;;;;;;5069218;28;20569;-57
2022/10/04 01:02:20;;;;;;;22.70;12.15;;;10.90;99.90;;;;;;5068782;28;20036;-57
2022/10/04 01:05:09;;;;;;;26.27;13.02;;;10.80;99.90;;;;;;5069875;28;20131;-57
2022/10/04 01:07:41;;;;;;;25.60;11.88;;;10.60;99.90;;;;;;5068669;28;20052;-57
2022/10/04 01:10:12;;;;;;;25.45;11.65;;;10.80;99.90;;;;;;5068383;28;20528;-57
2022/10/04 01:12:41;;;;;;;27.65;13.38;;;12.60;99.90;;;;;;5072448;28;20097;-57
2022/10/04 01:15:17;;;;;;;28.70;12.82;;;12.30;99.90;;;;;;5071312;28;20079;-57
2022/10/04 01:18:05;;;;;;;27.38;12.85;;;10.90;99.90;;;;;;5074032;28;20642;-57
2022/10/04 01:20:47;;;;;;;25.25;12.48;;;10.70;99.90;;;;;;5074395;28;20040;-57
2022/10/04 01:23:37;;;;;;;21.58;13.43;;;10.80;99.90;;;;;;5071851;28;20049;-57
2022/10/04 01:26:25;;;;;;;22.58;11.43;;;10.90;99.90;;;;;;5052508;28;20122;-57
2022/10/04 01:28:52;;;;;;;26.52;12.70;;;13.10;99.90;;;;;;5072039;28;20412;-57
2022/10/04 01:31:18;;;;;;;21.70;12.32;;;11.00;99.90;;;;;;5074358;28;20040;-57
2022/10/04 01:33:43;;;;;;;25.38;12.88;;;11.00;99.90;;;;;;5074392;28;20741;-57
2022/10/04 01:36:09;;;;;;;25.10;12.40;;;11.00;99.90;;;;;;5074228;28;20070;-57
2022/10/04 01:38:35;;;;;;;26.80;13.60;;;10.90;99.90;;;;;;5074039;28;20043;-57
2022/10/04 01:41:03;;;;;;;27.70;12.20;;;9.30;99.90;;;;;;5072563;28;20040;-57
2022/10/04 01:43:35;;;;;;;25.23;12.18;;;10.90;99.90;;;;;;5072428;28;20043;-57
2022/10/04 01:46:14;;;;;;;29.58;13.40;;;11.00;99.90;;;;;;5073217;28;20473;-57
2022/10/04 01:48:43;;;;;;;26.27;13.93;;;11.20;99.90;;;;;;5072551;28;20048;-57
2022/10/04 01:51:18;;;;;;;18.85;12.23;;;11.40;99.90;;;;;;5072678;28;20044;-57
2022/10/04 01:53:55;;;;;;;25.92;12.82;;;12.10;99.90;;;;;;5071361;28;20124;-57
2022/10/04 01:56:24;;;;;;;29.35;12.73;;;11.00;99.90;;;;;;5071018;28;20105;-57
2022/10/04 01:59:03;;;;;;;23.25;12.23;;;11.00;99.90;;;;;;5070937;28;20051;-57
2022/10/04 02:01:52;;;;;;;25.67;12.75;;;10.80;99.90;;;;;;5071094;28;20056;-57
2022/10/04 02:04:26;;;;;;;24.52;11.65;;;12.80;99.90;;;;;;5070378;28;20049;-56
2022/10/04 02:06:55;;;;;;;25.52;12.85;;;11.50;99.90;;;;;;5072773;28;20064;-57
2022/10/04 02:09:48;;;;;;;21.52;11.40;;;10.80;99.90;;;;;;5073147;28;20083;-57
2022/10/04 02:12:17;;;;;;;24.25;11.48;;;11.10;99.90;;;;;;5068597;28;20336;-57
2022/10/04 02:14:52;;;;;;;21.23;11.93;;;11.00;99.90;;;;;;5071179;28;20102;-57
2022/10/04 02:17:27;;;;;;;19.42;11.38;;;12.20;99.90;;;;;;5070475;28;20045;-57
2022/10/04 02:19:53;;;;;;;23.52;12.63;;;9.30;99.90;;;;;;5071732;28;20055;-57
2022/10/04 02:22:21;;;;;;;23.88;11.55;;;11.70;99.90;;;;;;5069074;28;20040;-57
2022/10/04 02:24:49;;;;;;;18.15;10.35;;;10.90;99.90;;;;;;5070796;28;20380;-57
2022/10/04 02:27:15;;;;;;;24.63;10.98;;;10.90;99.90;;;;;;5072799;28;20040;-57
2022/10/04 02:29:41;;;;;;;21.55;10.50;;;11.30;99.90;;;;;;5072383;28;20462;-57
2022/10/04 02:34:54;;;;;;;29.42;11.68;;;12.40;99.90;;;;;;5072322;28;20048;-57
2022/10/04 02:37:22;;;;;;;24.13;11.68;;;10.70;99.90;;;;;;5073354;28;20052;-57
2022/10/04 02:40:06;;;;;;;21.17;10.77;;;10.80;99.90;;;;;;5073992;28;20063;-57
2022/10/04 02:43:06;;;;;;;21.65;9.52;;;10.70;99.90;;;;;;5071870;28;20074;-57
2022/10/04 02:46:01;;;;;;;22.17;10.40;;;10.50;99.90;;;;;;5056780;28;20782;-57
2022/10/04 02:48:43;;;;;;;26.15;10.52;;;11.20;99.90;;;;;;5067965;28;20083;-57
2022/10/04 02:51:24;;;;;;;21.97;10.23;;;12.70;99.90;;;;;;5071969;28;20397;-57
2022/10/04 02:54:17;;;;;;;22.80;11.15;;;10.50;99.90;;;;;;5070369;28;20397;-57
2022/10/04 02:56:43;;;;;;;24.60;10.23;;;10.40;99.90;;;;;;5056201;28;20050;-57
2022/10/04 02:59:15;;;;;;;24.15;9.73;;;10.40;99.90;;;;;;5071427;28;20100;-57
2022/10/04 03:01:49;;;;;;;22.75;10.48;;;10.30;99.90;;;;;;5071640;28;20044;-57
2022/10/04 03:04:19;;;;;;;26.73;11.43;;;10.50;99.90;;;;;;5071484;28;20520;-57
2022/10/04 03:06:46;;;;;;;27.30;11.93;;;11.20;99.90;;;;;;5070701;28;20377;-57
2022/10/04 03:09:14;;;;;;;26.58;12.70;;;10.30;99.90;;;;;;5071241;28;20449;-57
2022/10/04 03:11:40;;;;;;;26.63;11.52;;;10.10;99.90;;;;;;5071394;28;20197;-57
2022/10/04 03:14:12;;;;;;;23.05;12.20;;;10.20;99.90;;;;;;5070203;28;20087;-57
2022/10/04 03:16:41;;;;;;;27.55;11.25;;;10.10;99.90;;;;;;5070279;28;20123;-57
2022/10/04 03:19:09;;;;;;;19.83;10.68;;;12.30;99.90;;;;;;5071950;28;20077;-57
2022/10/04 03:21:37;;;;;;;20.92;11.23;;;10.20;99.90;;;;;;5070255;28;20670;-57
2022/10/04 03:24:05;;;;;;;21.00;11.45;;;9.00;99.90;;;;;;5070999;28;20036;-57
2022/10/04 03:26:46;;;;;;;20.92;11.73;;;10.30;99.90;;;;;;5070907;28;20294;-57
2022/10/04 03:29:15;;;;;;;20.40;12.00;;;11.80;99.90;;;;;;5069251;28;20044;-57
2022/10/04 03:31:45;;;;;;;21.25;11.15;;;9.80;99.90;;;;;;5070045;28;20086;-57
2022/10/04 03:34:32;;;;;;;25.02;11.07;;;10.00;99.90;;;;;;5070892;28;20067;-56
2022/10/04 03:37:00;;;;;;;24.38;11.82;;;9.90;99.90;;;;;;5072288;28;20566;-57
2022/10/04 03:39:32;;;;;;;29.75;11.30;;;11.50;99.90;;;;;;5073344;28;21144;-57
2022/10/04 03:42:24;;;;;;;25.13;12.30;;;9.70;99.90;;;;;;5071695;28;20051;-57
2022/10/04 03:44:52;;;;;;;;;;;9.90;99.90;;;;;;5066071;28;20718;-57
2022/10/04 03:47:29;;;;;;;21.75;10.27;;;11.50;99.90;;;;;;5070374;28;19931;-57
2022/10/04 03:49:59;;;;;;;23.65;10.98;;;9.90;99.90;;;;;;5067771;28;20044;-57
2022/10/04 03:52:30;;;;;;;27.10;12.57;;;11.50;99.90;;;;;;5070369;28;20044;-57
2022/10/04 03:55:00;;;;;;;24.77;11.43;;;11.00;99.90;;;;;;5069366;28;20067;-57
2022/10/04 03:57:27;;;;;;;20.85;11.27;;;10.60;99.90;;;;;;5070179;28;20438;-57
2022/10/04 03:59:53;;;;;;;20.38;11.35;;;9.70;99.90;;;;;;5070754;28;20051;-57
2022/10/04 04:02:25;;;;;;;25.48;10.27;;;9.70;99.90;;;;;;5071426;28;20044;-57
2022/10/04 04:05:03;;;;;;;21.08;11.40;;;9.40;99.90;;;;;;5070545;28;20036;-57
2022/10/04 04:07:37;;;;;;;25.02;11.50;;;9.60;99.90;;;;;;5071818;28;20032;-57
2022/10/04 04:10:26;;;;;;;23.10;10.55;;;9.80;99.90;;;;;;5070994;28;20118;-57
2022/10/04 04:13:20;;;;;;;23.67;11.77;;;9.70;99.90;;;;;;5071136;28;20280;-57
2022/10/04 04:15:47;;;;;;;30.15;12.68;;;9.70;99.90;;;;;;5070162;28;20040;-57
2022/10/04 04:18:27;;;;;;;22.42;11.80;;;10.40;99.90;;;;;;5068545;28;20055;-57
2022/10/04 04:20:58;;;;;;;26.75;13.30;;;9.60;99.90;;;;;;5069938;28;20048;-57
2022/10/04 04:23:31;;;;;;;21.73;12.20;;;10.50;99.90;;;;;;5070796;28;20433;-57
2022/10/04 04:26:14;;;;;;;22.67;12.18;;;9.30;99.90;;;;;;5068935;28;20028;-56
2022/10/04 04:28:54;;;;;;;25.70;12.55;;;9.70;99.90;;;;;;5067026;28;21496;-57
2022/10/04 04:31:42;;;;;;;22.25;13.13;;;9.50;99.90;;;;;;5068946;28;20040;-57
2022/10/04 04:34:47;;;;;;;26.50;12.65;;;10.50;99.90;;;;;;5068522;28;20051;-58
2022/10/04 04:37:13;;;;;;;22.73;11.88;;;9.40;99.90;;;;;;5069714;28;20032;-58
2022/10/04 04:39:40;;;;;;;27.58;13.18;;;9.80;99.90;;;;;;5071529;28;20503;-57
2022/10/04 04:42:20;;;;;;;22.85;13.35;;;9.40;99.90;;;;;;5068972;28;20405;-58
2022/10/04 04:44:56;;;;;;;22.67;12.82;;;9.40;99.90;;;;;;5069287;28;20044;-57
2022/10/04 04:47:35;;;;;;;25.17;12.82;;;9.50;99.90;;;;;;5067059;28;20963;-57
2022/10/04 04:50:23;;;;;;;22.25;12.35;;;9.60;99.90;;;;;;5068881;28;20040;-57
2022/10/04 04:52:56;;;;;;;27.67;13.57;;;9.50;99.90;;;;;;5068770;28;20070;-59
2022/10/04 04:55:28;;;;;;;25.20;13.77;;;11.10;99.90;;;;;;5070370;28;20051;-57
2022/10/04 04:57:57;;;;;;;22.70;14.05;;;9.40;99.90;;;;;;5068925;28;20045;-57
2022/10/04 05:00:29;;;;;;;25.20;14.48;;;9.90;99.90;;;;;;5068559;28;20048;-57
2022/10/04 05:02:57;;;;;;;24.55;13.98;;;9.40;99.90;;;;;;5069941;28;20036;-57
2022/10/04 05:05:26;;;;;;;25.00;13.30;;;9.70;99.90;;;;;;5068669;28;20373;-58
2022/10/04 05:08:10;;;;;;;24.63;14.38;;;9.40;99.90;;;;;;5070487;28;20101;-58
2022/10/04 05:10:39;;;;;;;25.95;13.70;;;9.40;99.90;;;;;;5071040;28;20192;-57
2022/10/04 05:13:07;;;;;;;24.92;15.20;;;9.50;99.90;;;;;;5069461;28;20054;-57
2022/10/04 05:15:38;;;;;;;27.63;15.00;;;9.40;99.90;;;;;;5069555;28;20036;-58
2022/10/04 05:18:28;;;;;;;29.02;14.80;;;9.40;99.90;;;;;;5069411;28;20548;-58
2022/10/04 05:20:57;;;;;;;27.08;15.23;;;9.40;99.90;;;;;;5071210;28;20044;-57
2022/10/04 05:23:23;;;;;;;26.27;14.13;;;9.40;99.90;;;;;;5070731;28;20051;-57
2022/10/04 05:25:50;;;;;;;32.30;15.80;;;9.30;99.90;;;;;;5070910;28;20032;-57
2022/10/04 05:28:17;;;;;;;26.85;14.25;;;9.20;99.90;;;;;;5070698;28;20075;-57
2022/10/04 05:31:15;;;;;;;27.60;14.27;;;9.40;99.90;;;;;;5070310;28;20040;-57
2022/10/04 05:33:48;;;;;;;21.88;14.20;;;9.20;99.90;;;;;;5069770;28;20051;-57
2022/10/04 05:36:17;;;;;;;21.17;14.20;;;10.30;99.90;;;;;;5070798;28;20097;-58
2022/10/04 05:39:12;;;;;;;27.48;15.63;;;9.00;99.90;;;;;;5069780;28;20548;-57
2022/10/04 05:41:53;;;;;;;25.38;14.73;;;9.10;99.90;;;;;;5067358;28;20047;-57
2022/10/04 05:44:27;;;;;;;27.00;15.23;;;9.10;99.90;;;;;;5068600;28;20584;-57
2022/10/04 05:46:58;;;;;;;26.80;14.65;;;9.10;99.90;;;;;;5068176;28;20140;-58
2022/10/04 05:49:27;;;;;;;25.95;15.82;;;9.00;99.90;;;;;;5068280;28;20044;-58
2022/10/04 05:52:03;;;;;;;28.77;15.00;;;9.00;99.90;;;;;;5068632;28;20051;-58
2022/10/04 05:54:34;;;;;;;38.08;15.85;;;9.10;99.90;;;;;;5069581;28;20040;-58
2022/10/04 05:57:21;;;;;;;31.02;14.77;;;8.90;99.90;;;;;;5069773;28;20502;-58
2022/10/04 05:59:54;;;;;;;35.97;16.83;;;9.00;99.90;;;;;;5072481;28;20040;-58
2022/10/04 06:02:57;;;;;;;25.30;16.10;;;8.90;99.90;;;;;;5073981;28;20124;-58
2022/10/04 06:05:49;;;;;;;26.65;16.00;;;8.90;99.90;;;;;;5071947;28;20047;-58
2022/10/04 06:08:30;;;;;;;36.03;16.65;;;9.00;99.90;;;;;;5073119;28;20819;-58
2022/10/04 06:11:22;;;;;;;27.15;18.20;;;7.50;99.90;;;;;;5073168;28;20302;-58
2022/10/04 06:13:53;;;;;;;27.60;17.27;;;9.00;99.90;;;;;;5072755;28;20711;-57
2022/10/04 06:16:34;;;;;;;27.48;17.77;;;8.90;99.90;;;;;;5073757;28;20050;-58
2022/10/04 06:19:24;;;;;;;26.75;15.82;;;9.20;99.90;;;;;;5072152;28;20048;-58
2022/10/04 06:21:52;;;;;;;28.77;17.33;;;9.10;99.90;;;;;;5052398;28;20135;-58
2022/10/04 06:24:25;;;;;;;31.95;18.35;;;9.30;99.90;;;;;;5072738;28;20051;-58
2022/10/04 06:27:22;;;;;;;32.35;18.92;;;10.90;99.90;;;;;;5070780;28;20047;-58
2022/10/04 06:30:00;;;;;;;30.58;17.60;;;9.40;99.90;;;;;;5072894;28;20055;-58
2022/10/04 06:32:34;;;;;;;31.35;17.38;;;9.60;99.90;;;;;;5071120;28;20137;-58
2022/10/04 06:35:19;;;;;;;30.20;17.20;;;9.90;99.90;;;;;;5073713;28;20086;-58
2022/10/04 06:37:59;;;;;;;26.20;15.77;;;10.00;99.90;;;;;;5074616;28;20040;-58
2022/10/04 06:40:36;;;;;;;27.02;16.38;;;10.10;99.90;;;;;;5075068;28;20040;-58
2022/10/04 06:43:13;;;;;;;28.35;16.27;;;10.10;99.90;;;;;;5074062;28;20419;-58
2022/10/04 06:46:02;;;;;;;27.27;16.33;;;10.30;99.90;;;;;;5072972;28;20083;-59
2022/10/04 06:48:54;;;;;;;22.38;14.68;;;10.40;99.90;;;;;;5073558;28;20488;-58
2022/10/04 06:51:32;;;;;;;26.52;15.55;;;10.60;99.90;;;;;;5072038;28;20067;-58
2022/10/04 06:54:19;;;;;;;27.88;15.18;;;10.30;99.90;;;;;;5072104;28;20076;-58
2022/10/04 06:56:52;;;;;;;28.52;15.27;;;11.00;99.90;;;;;;5031425;28;20048;-56
2022/10/04 06:59:46;;;;;;;26.50;14.80;;;10.60;99.90;;;;;;5072489;28;20042;-58
2022/10/04 07:02:20;;;;;;;25.08;13.90;;;10.80;99.90;;;;;;5055822;28;20607;-58
2022/10/04 07:04:57;;;;;;;20.05;13.38;;;11.20;99.90;;;;;;5072539;28;20044;-58
2022/10/04 07:07:36;;;;;;;18.83;11.50;;;11.70;99.90;;;;;;5072693;28;20052;-58
2022/10/04 07:10:29;;;;;;;19.80;11.63;;;12.70;99.90;;;;;;5073218;28;20439;-58
2022/10/04 07:13:21;;;;;;;17.92;9.70;;;13.60;99.90;;;;;;5070172;28;20594;-58
2022/10/04 07:16:02;;;;;;;13.75;9.93;;;14.00;99.90;;;;;;5072767;28;20138;-57
2022/10/04 07:18:54;;;;;;;19.45;10.23;;;13.90;96.50;;;;;;5072542;28;20036;-57
2022/10/04 07:21:20;;;;;;;;;;;13.50;99.90;;;;;;5066281;28;20055;-57
2022/10/04 07:23:52;;;;;;;21.02;11.45;;;13.40;94.60;;;;;;5070477;28;19924;-57
2022/10/04 07:26:43;;;;;;;13.88;9.82;;;13.80;99.90;;;;;;5070823;28;20051;-57
2022/10/04 07:29:24;;;;;;;19.35;10.43;;;13.80;98.20;;;;;;5065665;28;20454;-58
2022/10/04 07:32:03;;;;;;;17.77;10.18;;;14.30;92.50;;;;;;5071720;28;20116;-57
2022/10/04 07:34:32;;;;;;;16.00;9.52;;;14.90;90.20;;;;;;5070869;28;20428;-57
2022/10/04 07:37:05;;;;;;;18.52;9.27;;;15.40;83.20;;;;;;5073313;28;20135;-57
2022/10/04 07:39:49;;;;;;;19.27;9.60;;;15.70;74.20;;;;;;5074074;28;20040;-58
2022/10/04 07:42:42;;;;;;;21.05;10.45;;;15.60;66.30;;;;;;5072744;28;20105;-57
2022/10/04 07:45:21;;;;;;;17.27;9.55;;;15.10;66.10;;;;;;5072432;28;20100;-58
2022/10/04 07:47:47;;;;;;;17.58;10.50;;;14.60;75.70;;;;;;5072830;28;20051;-57
2022/10/04 07:50:25;;;;;;;16.77;9.57;;;14.20;82.50;;;;;;5073198;28;20056;-57
2022/10/04 07:52:57;;;;;;;16.33;9.65;;;15.00;89.70;;;;;;5071936;28;20143;-57
2022/10/04 07:55:39;;;;;;;22.50;9.85;;;13.80;92.40;;;;;;5071544;28;20121;-57
2022/10/04 07:58:13;;;;;;;19.30;11.55;;;13.60;94.10;;;;;;5072841;28;20044;-57
2022/10/04 08:01:06;;;;;;;18.33;9.88;;;13.60;96.30;;;;;;5072283;28;20040;-57
2022/10/04 08:04:13;;;;;;;17.23;9.98;;;13.50;97.30;;;;;;5070214;28;20056;-57
2022/10/04 08:07:01;;;;;;;19.75;10.32;;;13.40;98.50;;;;;;5070648;28;20048;-57
2022/10/04 08:09:55;;;;;;;21.25;10.55;;;13.10;98.90;;;;;;5071453;28;20465;-57
2022/10/04 08:12:30;;;;;;;16.35;11.40;;;13.00;99.90;;;;;;5071805;28;20399;-57
2022/10/04 08:15:35;;;;;;;19.98;11.80;;;13.10;99.90;;;;;;5071279;28;20107;-57
2022/10/04 08:18:19;;;;;;;18.85;11.18;;;14.90;99.90;;;;;;5066786;28;20072;-57
2022/10/04 08:20:57;;;;;;;23.58;11.77;;;13.20;99.90;;;;;;5070519;28;21192;-57
2022/10/04 08:23:58;;;;;;;16.88;10.88;;;13.20;99.90;;;;;;5071931;28;20072;-57
2022/10/04 08:26:33;;;;;;;21.05;10.98;;;13.50;99.20;;;;;;5070229;28;20501;-57
2022/10/04 08:32:09;;;;;;;15.77;9.45;;;13.50;94.00;;;;;;5070386;28;20072;-57
2022/10/04 08:35:10;;;;;;;17.17;9.93;;;13.50;92.90;;;;;;5069804;28;20053;-57
2022/10/04 08:38:09;;;;;;;15.73;9.90;;;13.30;90.30;;;;;;5070188;28;20078;-57
2022/10/04 08:40:44;;;;;;;18.20;10.13;;;13.40;90.80;;;;;;5070493;28;20039;-57
2022/10/04 08:43:42;;;;;;;18.25;9.10;;;13.80;92.00;;;;;;5070477;28;20047;-57
2022/10/04 08:46:41;;;;;;;17.00;8.80;;;14.10;82.20;;;;;;5069999;28;20040;-57
2022/10/04 08:49:37;;;;;;;17.70;9.05;;;14.40;78.80;;;;;;5071642;28;20123;-57
2022/10/04 08:52:28;;;;;;;19.15;9.63;;;14.30;58.00;;;;;;5069900;28;20056;-55
2022/10/04 08:55:15;;;;;;;16.70;9.00;;;14.20;75.70;;;;;;5071310;28;20443;-57
2022/10/04 08:58:15;;;;;;;19.27;9.32;;;14.30;73.70;;;;;;5069255;28;20348;-56
2022/10/04 09:00:47;;;;;;;14.50;8.40;;;14.40;67.20;;;;;;5069534;28;20039;-57
2022/10/04 09:03:19;;;;;;;31.70;11.15;;;14.40;69.70;;;;;;5071292;28;20083;-57
2022/10/04 09:05:55;;;;;;;20.70;9.10;;;14.50;64.60;;;;;;5071470;28;20504;-57
2022/10/04 09:08:27;;;;;;;14.13;8.15;;;14.30;58.00;;;;;;5069360;28;20044;-57
2022/10/04 09:11:35;;;;;;;14.32;8.15;;;14.30;57.80;;;;;;5070749;28;20043;-55
2022/10/04 09:14:38;;;;;;;15.77;8.50;;;14.10;61.60;;;;;;5008547;28;20053;-57
2022/10/04 09:17:38;;;;;;;15.75;7.90;;;14.20;58.20;;;;;;5069898;28;20052;-57
2022/10/04 09:20:20;;;;;;;16.13;7.25;;;14.00;52.50;;;;;;5068096;28;20040;-57
2022/10/04 09:23:22;;;;;;;15.20;8.25;;;14.20;62.70;;;;;;5069668;28;20048;-57
2022/10/04 09:26:20;;;;;;;19.45;8.73;;;14.30;63.00;;;;;;5069232;28;20047;-57
2022/10/04 09:29:16;;;;;;;15.27;7.40;;;14.30;45.10;;;;;;5069463;28;20266;-57
2022/10/04 09:32:02;;;;;;;17.27;8.55;;;14.30;59.20;;;;;;5069921;28;20101;-57
2022/10/04 09:34:56;;;;;;;14.68;6.93;;;14.50;64.20;;;;;;5074433;28;20105;-57
2022/10/04 09:38:01;;;;;;;10.00;6.00;;;14.50;46.60;;;;;;5073227;28;20392;-57
2022/10/04 09:40:30;;;;;;;11.43;6.40;;;14.60;34.40;;;;;;5073845;28;20125;-57
2022/10/04 09:43:01;;;;;;;12.73;6.88;;;14.70;35.90;;;;;;5074039;28;20043;-57
2022/10/04 09:45:35;;;;;;;14.25;7.45;;;14.70;38.50;;;;;;5073943;28;20032;-57
2022/10/04 09:48:13;;;;;;;16.23;8.68;;;14.60;39.00;;;;;;5072645;28;20577;-57
2022/10/04 09:51:18;;;;;;;14.65;8.35;;;14.80;31.90;;;;;;5072345;28;20299;-57
2022/10/04 09:54:02;;;;;;;16.15;8.02;;;15.00;31.90;;;;;;5074264;28;20718;-57
2022/10/04 09:56:36;;;;;;;16.65;8.88;;;14.80;34.70;;;;;;5072601;28;20044;-57
2022/10/04 09:59:35;;;;;;;15.93;8.15;;;14.90;40.30;;;;;;5072993;28;20043;-57
2022/10/04 10:02:01;;;;;;;15.50;8.40;;;15.10;26.10;;;;;;5074593;28;20078;-57
2022/10/04 10:05:01;;;;;;;20.45;9.43;;;15.20;32.80;;;;;;5071062;28;20123;-57
2022/10/04 10:07:52;;;;;;;14.90;8.23;;;15.20;11.80;;;;;;5071870;28;20097;-57
2022/10/04 10:13:41;;;;;;;14.48;8.32;;;15.40;12.40;;;;;;5074525;28;20052;-57
2022/10/04 10:16:40;;;;;;;15.07;8.45;;;15.50;21.30;;;;;;5075279;28;20131;-57
2022/10/04 10:20:00;;;;;;;15.30;8.32;;;15.50;7.20;;;;;;5072358;28;20032;-55
2022/10/04 10:22:59;;;;;;;14.63;8.48;;;15.80;1.00;;;;;;5020380;28;20539;-57
2022/10/04 10:25:30;;;;;;;14.57;8.40;;;15.60;1.00;;;;;;5071687;28;20040;-56
2022/10/04 10:28:02;;;;;;;13.15;7.93;;;15.50;1.00;;;;;;5072120;28;20177;-56
2022/10/04 10:30:47;;;;;;;14.20;7.07;;;15.90;1.00;;;;;;5072606;28;20048;-56
2022/10/04 10:33:32;;;;;;;13.77;7.28;;;15.90;1.00;;;;;;5069536;28;20131;-57
2022/10/04 10:36:16;;;;;;;14.27;7.55;;;15.90;1.00;;;;;;5073141;28;20109;-57
2022/10/04 10:38:56;;;;;;;14.88;6.85;;;15.60;1.00;;;;;;5105407;27;20404;-57
2022/10/04 10:41:52;;;;;;;12.88;7.28;;;15.50;1.00;;;;;;5071830;28;20116;-56
2022/10/04 10:44:40;;;;;;;15.20;6.50;;;15.60;1.00;;;;;;5069971;28;20401;-57
2022/10/04 10:47:30;;;;;;;9.35;6.57;;;15.70;1.00;;;;;;5070081;28;20044;-57
2022/10/04 10:50:24;;;;;;;19.52;6.93;;;15.90;1.00;;;;;;5069555;28;20036;-57
2022/10/04 10:52:53;;;;;;;12.13;5.78;;;16.10;1.00;;;;;;5072400;28;20420;-57
2022/10/04 10:55:48;;;;;;;12.50;6.75;;;16.50;1.00;;;;;;5070672;28;20052;-57
2022/10/04 10:58:43;;;;;;;13.75;6.70;;;16.50;1.00;;;;;;5072124;28;20047;-56
2022/10/04 11:01:30;;;;;;;12.32;7.68;;;16.60;1.00;;;;;;5085215;28;20044;-57
2022/10/04 11:04:41;;;;;;;11.98;6.43;;;16.30;1.00;;;;;;5069273;28;20127;-56
2022/10/04 11:07:17;;;;;;;12.82;6.05;;;16.40;1.00;;;;;;5070264;28;20045;-57
2022/10/04 11:09:45;;;;;;;14.38;7.15;;;16.60;1.00;;;;;;5071135;28;20051;-57
2022/10/04 11:12:14;;;;;;;13.25;6.28;;;16.80;1.00;;;;;;5070525;28;20044;-57
2022/10/04 11:15:05;;;;;;;13.13;6.47;;;16.80;1.00;;;;;;5070450;28;20040;-56
2022/10/04 11:17:56;;;;;;;12.82;5.85;;;16.90;1.00;;;;;;5070851;28;20069;-56
2022/10/04 11:20:41;;;;;;;11.35;5.78;;;16.90;1.00;;;;;;5071160;28;20181;-56
2022/10/04 11:23:40;;;;;;;11.70;6.60;;;17.00;1.00;;;;;;5071664;28;20556;-56
2022/10/04 11:26:45;;;;;;;11.95;6.40;;;16.90;1.00;;;;;;5071298;28;20036;-56
2022/10/04 11:29:41;;;;;;;13.20;6.30;;;16.90;1.00;;;;;;5071930;28;20511;-57
2022/10/04 11:32:24;;;;;;;11.75;6.30;;;16.90;1.00;;;;;;5071875;28;20043;-56
2022/10/04 11:35:27;;;;;;;10.88;5.90;;;17.10;1.00;;;;;;5072421;28;20400;-56
2022/10/04 11:38:15;;;;;;;14.48;6.38;;;17.20;1.00;;;;;;5070567;28;20040;-56
2022/10/04 11:40:56;;;;;;;11.20;6.53;;;16.90;99.90;;;;;;5071480;28;20469;-56
2022/10/04 11:43:30;;;;;;;12.73;6.55;;;17.00;1.00;;;;;;5072180;28;20240;-56
2022/10/04 11:46:36;;;;;;;12.32;6.00;;;17.10;99.90;;;;;;5071189;28;20527;-57
2022/10/04 11:49:23;;;;;;;9.75;5.63;;;17.10;1.00;;;;;;5053599;28;20135;-56
2022/10/04 11:52:26;;;;;;;12.73;6.00;;;17.00;1.00;;;;;;5069156;28;20113;-56
2022/10/04 11:55:36;;;;;;;12.35;6.75;;;17.10;1.00;;;;;;5070408;28;20056;-57
2022/10/04 11:58:06;;;;;;;12.90;6.47;;;17.00;99.90;;;;;;5060016;28;20300;-56
2022/10/04 12:01:02;;;;;;;11.77;6.90;;;17.00;99.90;;;;;;5069218;28;20046;-56
2022/10/04 12:04:05;;;;;;;14.18;6.68;;;16.80;1.00;;;;;;5070404;28;20051;-56
2022/10/04 12:07:07;;;;;;;12.80;6.43;;;17.10;1.00;;;;;;5070203;28;21198;-56
2022/10/04 12:10:07;;;;;;;11.70;6.95;;;17.10;1.00;;;;;;5070614;28;20694;-57
2022/10/04 12:12:39;;;;;;;14.38;7.30;;;17.00;1.00;;;;;;5046939;28;20453;-56
2022/10/04 12:15:30;;;;;;;11.57;6.35;;;16.90;99.90;;;;;;5070428;28;20687;-56
2022/10/04 12:18:08;;;;;;;12.70;6.82;;;16.70;99.90;;;;;;5070528;28;20938;-57
2022/10/04 12:20:53;;;;;;;10.57;6.38;;;16.80;99.90;;;;;;5068136;28;20041;-56
2022/10/04 12:23:37;;;;;;;11.20;6.57;;;16.80;1.00;;;;;;5070580;28;20748;-56
2022/10/04 12:26:40;;;;;;;11.07;6.20;;;17.00;1.00;;;;;;5068973;28;20117;-56
2022/10/04 12:29:33;;;;;;;12.55;7.20;;;16.90;1.00;;;;;;5069601;28;20530;-56
2022/10/04 12:32:09;;;;;;;12.77;6.85;;;16.80;1.00;;;;;;5067515;28;20606;-56
2022/10/04 12:35:03;;;;;;;15.43;6.78;;;16.70;1.00;;;;;;5065668;28;20488;-57
2022/10/04 12:37:34;;;;;;;11.13;6.03;;;16.70;1.00;;;;;;5067747;28;20052;-56
2022/10/04 12:40:09;;;;;;;12.02;6.05;;;16.60;1.00;;;;;;5067527;28;20389;-56
2022/10/04 12:42:57;;;;;;;9.88;6.78;;;16.70;1.00;;;;;;5069355;28;20036;-56
2022/10/04 12:45:36;;;;;;;10.48;5.97;;;17.00;1.00;;;;;;5069096;28;20054;-56
2022/10/04 12:48:28;;;;;;;10.00;4.60;;;17.10;1.00;;;;;;5070653;28;20032;-57
2022/10/04 12:51:15;;;;;;;9.73;5.05;;;17.20;1.00;;;;;;5049608;28;20481;-56
2022/10/04 12:54:01;;;;;;;16.70;6.00;;;17.00;1.00;;;;;;5070895;28;20094;-56
2022/10/04 12:56:56;;;;;;;12.85;5.38;;;17.20;1.00;;;;;;5070480;28;20047;-55
2022/10/04 12:59:24;;;;;;;8.82;4.80;;;17.10;1.00;;;;;;5071100;28;20036;-56
2022/10/04 13:02:08;;;;;;;11.82;5.47;;;17.20;1.00;;;;;;5071083;28;20047;-57
2022/10/04 13:05:07;;;;;;;9.15;4.68;;;17.00;99.90;;;;;;5070673;28;20648;-56
2022/10/04 13:07:55;;;;;;;8.88;5.80;;;17.10;1.00;;;;;;5069879;28;20047;-56
2022/10/04 13:10:49;;;;;;;14.95;5.90;;;17.20;1.00;;;;;;5072119;28;20067;-57
2022/10/04 13:13:53;;;;;;;14.98;6.20;;;17.20;1.00;;;;;;5071658;28;20424;-56
2022/10/04 13:17:03;;;;;;;13.00;6.38;;;17.20;99.90;;;;;;5066978;28;20035;-55
2022/10/04 13:19:59;;;;;;;11.20;5.70;;;17.20;99.90;;;;;;5069999;28;20047;-56
2022/10/04 13:22:49;;;;;;;10.55;6.20;;;17.30;99.90;;;;;;5068581;28;20086;-56
2022/10/04 13:25:21;;;;;;;9.48;5.30;;;17.10;99.90;;;;;;5068668;28;20040;-56
2022/10/04 13:27:59;;;;;;;13.77;5.45;;;17.10;99.90;;;;;;5069915;28;20034;-56
2022/10/04 13:30:31;;;;;;;10.95;4.50;;;17.00;99.90;;;;;;5070154;28;20309;-57
2022/10/04 13:33:32;;;;;;;11.68;5.15;;;17.20;99.90;;;;;;5069281;28;20120;-56
2022/10/04 13:36:18;;;;;;;9.25;5.43;;;16.70;99.90;;;;;;5067079;28;20512;-56
2022/10/04 13:38:57;;;;;;;10.55;5.18;;;16.90;99.90;;;;;;5068641;28;20044;-55
2022/10/04 13:42:00;;;;;;;9.02;5.10;;;16.70;99.90;;;;;;5069755;28;20381;-56
2022/10/04 13:45:04;;;;;;;10.15;4.97;;;16.80;99.90;;;;;;5067965;28;20051;-55
2022/10/04 13:47:45;;;;;;;9.73;4.78;;;16.90;99.90;;;;;;5068599;28;20140;-56
2022/10/04 13:50:13;;;;;;;13.10;4.47;;;16.80;99.90;;;;;;5069083;28;20276;-55
2022/10/04 13:59:05;;;;;;;8.85;4.80;;;16.80;99.90;;;;;;5069594;28;20573;-56
2022/10/04 14:01:57;;;;;;;8.70;4.82;;;16.80;99.90;;;;;;5067912;28;20058;-56
2022/10/04 14:04:41;;;;;;;9.48;4.93;;;16.80;99.90;;;;;;5068756;28;20423;-56